sensor_id;sensor_type;location;lat;lon;timestamp;P1;durP1;ratioP1;P2;durP2;ratioP2
8594;SDS011;4335;48.860;9.198;2022-11-15T00:01:35;7.03;;;4.10;;
8594;SDS011;4335;48.860;9.198;2022-11-15T00:04:02;5.63;;;3.67;;
8594;SDS011;4335;48.860;9.198;2022-11-15T00:06:29;5.27;;;3.83;;
8594;SDS011;4335;48.860;9.198;2022-11-15T00:08:57;3.63;;;3.33;;
8594;SDS011;4335;48.860;9.198;2022-11-15T00:11:24;4.83;;;4.00;;
8594;SDS011;4335;48.860;9.198;2022-11-15T00:13:50;5.93;;;3.77;;
8594;SDS011;4335;48.860;9.198;2022-11-15T00:16:16;6.87;;;3.97;;
8594;SDS011;4335;48.860;9.198;2022-11-15T00:18:43;4.50;;;3.90;;
8594;SDS011;4335;48.860;9.198;2022-11-15T00:21:09;5.33;;;4.50;;
8594;SDS011;4335;48.860;9.198;2022-11-15T00:23:37;4.53;;;3.60;;
8594;SDS011;4335;48.860;9.198;2022-11-15T00:26:03;4.43;;;3.57;;
8594;SDS011;4335;48.860;9.198;2022-11-15T00:28:33;5.83;;;3.80;;
8594;SDS011;4335;48.860;9.198;2022-11-15T00:31:00;4.60;;;3.60;;
8594;SDS011;4335;48.860;9.198;2022-11-15T00:33:27;4.00;;;3.27;;
8594;SDS011;4335;48.860;9.198;2022-11-15T00:35:58;5.27;;;3.43;;
8594;SDS011;4335;48.860;9.198;2022-11-15T00:38:30;4.73;;;3.60;;
8594;SDS011;4335;48.860;9.198;2022-11-15T00:40:58;3.93;;;3.50;;
8594;SDS011;4335;48.860;9.198;2022-11-15T00:43:25;4.73;;;3.40;;
8594;SDS011;4335;48.860;9.198;2022-11-15T00:45:52;4.90;;;3.77;;
8594;SDS011;4335;48.860;9.198;2022-11-15T00:48:19;10.10;;;3.67;;
8594;SDS011;4335;48.860;9.198;2022-11-15T00:50:45;3.87;;;2.97;;
8594;SDS011;4335;48.860;9.198;2022-11-15T00:53:12;4.10;;;3.20;;
8594;SDS011;4335;48.860;9.198;2022-11-15T00:55:39;5.13;;;3.83;;
8594;SDS011;4335;48.860;9.198;2022-11-15T00:58:06;5.83;;;3.70;;
8594;SDS011;4335;48.860;9.198;2022-11-15T01:00:33;6.07;;;3.37;;
8594;SDS011;4335;48.860;9.198;2022-11-15T01:03:00;4.00;;;3.30;;
8594;SDS011;4335;48.860;9.198;2022-11-15T01:05:27;6.87;;;4.60;;
8594;SDS011;4335;48.860;9.198;2022-11-15T01:07:54;4.83;;;3.60;;
8594;SDS011;4335;48.860;9.198;2022-11-15T01:10:21;5.50;;;4.00;;
8594;SDS011;4335;48.860;9.198;2022-11-15T01:12:49;4.93;;;3.80;;
8594;SDS011;4335;48.860;9.198;2022-11-15T01:15:16;4.43;;;3.30;;
8594;SDS011;4335;48.860;9.198;2022-11-15T01:17:43;3.70;;;3.27;;
8594;SDS011;4335;48.860;9.198;2022-11-15T01:20:10;5.77;;;3.27;;
8594;SDS011;4335;48.860;9.198;2022-11-15T01:22:37;4.23;;;3.67;;
8594;SDS011;4335;48.860;9.198;2022-11-15T01:25:04;6.30;;;2.80;;
8594;SDS011;4335;48.860;9.198;2022-11-15T01:27:31;5.27;;;3.70;;
8594;SDS011;4335;48.860;9.198;2022-11-15T01:29:58;4.83;;;3.27;;
8594;SDS011;4335;48.860;9.198;2022-11-15T01:32:25;5.23;;;3.67;;
8594;SDS011;4335;48.860;9.198;2022-11-15T01:34:52;4.20;;;3.40;;
8594;SDS011;4335;48.860;9.198;2022-11-15T01:37:19;4.97;;;3.43;;
8594;SDS011;4335;48.860;9.198;2022-11-15T01:39:48;4.87;;;3.83;;
8594;SDS011;4335;48.860;9.198;2022-11-15T01:42:15;5.30;;;3.40;;
8594;SDS011;4335;48.860;9.198;2022-11-15T01:44:45;4.43;;;3.00;;
8594;SDS011;4335;48.860;9.198;2022-11-15T01:47:14;3.40;;;2.80;;
8594;SDS011;4335;48.860;9.198;2022-11-15T01:49:47;6.60;;;4.00;;
8594;SDS011;4335;48.860;9.198;2022-11-15T01:52:19;3.53;;;3.10;;
8594;SDS011;4335;48.860;9.198;2022-11-15T01:54:47;4.23;;;3.23;;
8594;SDS011;4335;48.860;9.198;2022-11-15T01:57:16;8.50;;;4.90;;
8594;SDS011;4335;48.860;9.198;2022-11-15T01:59:43;4.93;;;3.87;;
8594;SDS011;4335;48.860;9.198;2022-11-15T02:02:11;5.13;;;3.87;;
8594;SDS011;4335;48.860;9.198;2022-11-15T02:04:39;6.83;;;3.67;;
8594;SDS011;4335;48.860;9.198;2022-11-15T02:07:09;5.87;;;4.37;;
8594;SDS011;4335;48.860;9.198;2022-11-15T02:09:37;7.43;;;4.00;;
8594;SDS011;4335;48.860;9.198;2022-11-15T02:12:04;4.77;;;3.67;;
8594;SDS011;4335;48.860;9.198;2022-11-15T02:14:33;4.23;;;3.20;;
8594;SDS011;4335;48.860;9.198;2022-11-15T02:17:02;4.93;;;3.57;;
8594;SDS011;4335;48.860;9.198;2022-11-15T02:22:47;3.50;;;3.10;;
8594;SDS011;4335;48.860;9.198;2022-11-15T02:25:36;5.43;;;2.80;;
8594;SDS011;4335;48.860;9.198;2022-11-15T02:31:07;4.17;;;3.37;;
8594;SDS011;4335;48.860;9.198;2022-11-15T02:33:41;4.53;;;3.50;;
8594;SDS011;4335;48.860;9.198;2022-11-15T02:36:21;3.43;;;3.13;;
8594;SDS011;4335;48.860;9.198;2022-11-15T02:38:59;2.90;;;2.70;;
8594;SDS011;4335;48.860;9.198;2022-11-15T02:41:34;2.97;;;2.67;;
8594;SDS011;4335;48.860;9.198;2022-11-15T02:44:21;3.50;;;2.70;;
8594;SDS011;4335;48.860;9.198;2022-11-15T02:46:58;3.33;;;3.00;;
8594;SDS011;4335;48.860;9.198;2022-11-15T02:49:41;3.83;;;2.57;;
8594;SDS011;4335;48.860;9.198;2022-11-15T02:52:14;3.80;;;2.87;;
8594;SDS011;4335;48.860;9.198;2022-11-15T02:54:52;4.57;;;3.07;;
8594;SDS011;4335;48.860;9.198;2022-11-15T02:57:22;3.93;;;3.17;;
8594;SDS011;4335;48.860;9.198;2022-11-15T03:00:00;6.50;;;2.90;;
8594;SDS011;4335;48.860;9.198;2022-11-15T03:02:38;4.07;;;3.63;;
8594;SDS011;4335;48.860;9.198;2022-11-15T03:05:24;6.47;;;3.87;;
8594;SDS011;4335;48.860;9.198;2022-11-15T03:08:01;5.83;;;3.50;;
8594;SDS011;4335;48.860;9.198;2022-11-15T03:10:37;4.57;;;3.73;;
8594;SDS011;4335;48.860;9.198;2022-11-15T03:13:19;6.33;;;4.03;;
8594;SDS011;4335;48.860;9.198;2022-11-15T03:15:53;6.40;;;4.07;;
8594;SDS011;4335;48.860;9.198;2022-11-15T03:18:27;7.37;;;4.97;;
8594;SDS011;4335;48.860;9.198;2022-11-15T03:20:58;7.17;;;4.47;;
8594;SDS011;4335;48.860;9.198;2022-11-15T03:23:30;7.50;;;5.63;;
8594;SDS011;4335;48.860;9.198;2022-11-15T03:26:05;6.50;;;4.90;;
8594;SDS011;4335;48.860;9.198;2022-11-15T03:28:36;5.70;;;4.63;;
8594;SDS011;4335;48.860;9.198;2022-11-15T03:31:05;6.50;;;4.77;;
8594;SDS011;4335;48.860;9.198;2022-11-15T03:33:49;7.93;;;5.13;;
8594;SDS011;4335;48.860;9.198;2022-11-15T03:36:19;7.63;;;5.63;;
8594;SDS011;4335;48.860;9.198;2022-11-15T03:38:48;7.57;;;4.70;;
8594;SDS011;4335;48.860;9.198;2022-11-15T03:41:17;8.57;;;5.67;;
8594;SDS011;4335;48.860;9.198;2022-11-15T03:43:49;6.97;;;5.47;;
8594;SDS011;4335;48.860;9.198;2022-11-15T03:46:24;10.83;;;5.80;;
8594;SDS011;4335;48.860;9.198;2022-11-15T03:49:03;7.23;;;5.57;;
8594;SDS011;4335;48.860;9.198;2022-11-15T03:51:36;7.83;;;5.60;;
8594;SDS011;4335;48.860;9.198;2022-11-15T03:54:06;7.47;;;5.07;;
8594;SDS011;4335;48.860;9.198;2022-11-15T03:56:33;6.33;;;5.13;;
8594;SDS011;4335;48.860;9.198;2022-11-15T03:58:59;5.97;;;5.20;;
8594;SDS011;4335;48.860;9.198;2022-11-15T04:01:32;7.83;;;4.93;;
8594;SDS011;4335;48.860;9.198;2022-11-15T04:03:58;13.20;;;6.57;;
8594;SDS011;4335;48.860;9.198;2022-11-15T04:06:29;6.73;;;4.83;;
8594;SDS011;4335;48.860;9.198;2022-11-15T04:08:56;8.13;;;5.77;;
8594;SDS011;4335;48.860;9.198;2022-11-15T04:11:22;8.53;;;5.03;;
8594;SDS011;4335;48.860;9.198;2022-11-15T04:13:49;6.77;;;5.43;;
8594;SDS011;4335;48.860;9.198;2022-11-15T04:16:23;8.73;;;5.37;;
8594;SDS011;4335;48.860;9.198;2022-11-15T04:18:50;7.37;;;5.73;;
8594;SDS011;4335;48.860;9.198;2022-11-15T04:21:31;9.17;;;5.93;;
8594;SDS011;4335;48.860;9.198;2022-11-15T04:24:16;6.33;;;5.00;;
8594;SDS011;4335;48.860;9.198;2022-11-15T04:26:49;9.40;;;6.47;;
8594;SDS011;4335;48.860;9.198;2022-11-15T04:29:16;10.10;;;6.23;;
8594;SDS011;4335;48.860;9.198;2022-11-15T04:32:01;7.90;;;5.80;;
8594;SDS011;4335;48.860;9.198;2022-11-15T04:34:28;7.90;;;5.80;;
8594;SDS011;4335;48.860;9.198;2022-11-15T04:36:55;7.80;;;5.70;;
8594;SDS011;4335;48.860;9.198;2022-11-15T04:39:37;7.83;;;5.70;;
8594;SDS011;4335;48.860;9.198;2022-11-15T04:42:04;8.60;;;5.30;;
8594;SDS011;4335;48.860;9.198;2022-11-15T04:44:31;10.60;;;6.33;;
8594;SDS011;4335;48.860;9.198;2022-11-15T04:46:57;8.13;;;6.23;;
8594;SDS011;4335;48.860;9.198;2022-11-15T04:49:24;6.73;;;4.90;;
8594;SDS011;4335;48.860;9.198;2022-11-15T04:51:55;5.60;;;4.50;;
8594;SDS011;4335;48.860;9.198;2022-11-15T04:54:21;6.13;;;5.20;;
8594;SDS011;4335;48.860;9.198;2022-11-15T04:56:48;6.00;;;4.73;;
8594;SDS011;4335;48.860;9.198;2022-11-15T04:59:15;8.80;;;5.30;;
8594;SDS011;4335;48.860;9.198;2022-11-15T05:01:42;6.37;;;5.10;;
8594;SDS011;4335;48.860;9.198;2022-11-15T05:04:11;7.17;;;4.27;;
8594;SDS011;4335;48.860;9.198;2022-11-15T05:06:53;6.73;;;4.93;;
8594;SDS011;4335;48.860;9.198;2022-11-15T05:09:20;6.53;;;5.23;;
8594;SDS011;4335;48.860;9.198;2022-11-15T05:11:50;7.13;;;5.37;;
8594;SDS011;4335;48.860;9.198;2022-11-15T05:14:20;5.67;;;4.27;;
8594;SDS011;4335;48.860;9.198;2022-11-15T05:16:46;5.77;;;4.67;;
8594;SDS011;4335;48.860;9.198;2022-11-15T05:19:34;8.10;;;4.90;;
8594;SDS011;4335;48.860;9.198;2022-11-15T05:22:02;6.90;;;4.80;;
8594;SDS011;4335;48.860;9.198;2022-11-15T05:24:29;5.63;;;4.83;;
8594;SDS011;4335;48.860;9.198;2022-11-15T05:27:06;6.50;;;4.50;;
8594;SDS011;4335;48.860;9.198;2022-11-15T05:29:33;6.00;;;4.53;;
8594;SDS011;4335;48.860;9.198;2022-11-15T05:32:00;5.17;;;4.37;;
8594;SDS011;4335;48.860;9.198;2022-11-15T05:34:26;5.83;;;4.43;;
8594;SDS011;4335;48.860;9.198;2022-11-15T05:36:53;6.23;;;4.63;;
8594;SDS011;4335;48.860;9.198;2022-11-15T05:39:20;6.00;;;4.43;;
8594;SDS011;4335;48.860;9.198;2022-11-15T05:41:48;5.07;;;4.30;;
8594;SDS011;4335;48.860;9.198;2022-11-15T05:44:21;5.63;;;4.40;;
8594;SDS011;4335;48.860;9.198;2022-11-15T05:46:50;4.80;;;4.30;;
8594;SDS011;4335;48.860;9.198;2022-11-15T05:49:19;5.77;;;4.53;;
8594;SDS011;4335;48.860;9.198;2022-11-15T05:51:53;12.53;;;6.37;;
8594;SDS011;4335;48.860;9.198;2022-11-15T05:54:20;9.87;;;5.37;;
8594;SDS011;4335;48.860;9.198;2022-11-15T05:56:55;8.63;;;5.40;;
8594;SDS011;4335;48.860;9.198;2022-11-15T05:59:24;6.83;;;4.77;;
8594;SDS011;4335;48.860;9.198;2022-11-15T06:01:51;7.30;;;4.80;;
8594;SDS011;4335;48.860;9.198;2022-11-15T06:04:24;8.70;;;5.90;;
8594;SDS011;4335;48.860;9.198;2022-11-15T06:06:51;11.50;;;7.17;;
8594;SDS011;4335;48.860;9.198;2022-11-15T06:09:20;8.73;;;6.43;;
8594;SDS011;4335;48.860;9.198;2022-11-15T06:11:50;7.77;;;5.53;;
8594;SDS011;4335;48.860;9.198;2022-11-15T06:14:17;10.37;;;6.20;;
8594;SDS011;4335;48.860;9.198;2022-11-15T06:16:44;8.67;;;5.67;;
8594;SDS011;4335;48.860;9.198;2022-11-15T06:19:11;7.90;;;6.17;;
8594;SDS011;4335;48.860;9.198;2022-11-15T06:21:38;9.13;;;5.83;;
8594;SDS011;4335;48.860;9.198;2022-11-15T06:24:10;5.90;;;4.93;;
8594;SDS011;4335;48.860;9.198;2022-11-15T06:26:37;6.13;;;5.00;;
8594;SDS011;4335;48.860;9.198;2022-11-15T06:29:04;10.10;;;5.00;;
8594;SDS011;4335;48.860;9.198;2022-11-15T06:31:34;6.53;;;5.07;;
8594;SDS011;4335;48.860;9.198;2022-11-15T06:34:01;7.10;;;5.20;;
8594;SDS011;4335;48.860;9.198;2022-11-15T06:36:27;10.30;;;5.73;;
8594;SDS011;4335;48.860;9.198;2022-11-15T06:38:57;5.60;;;4.67;;
8594;SDS011;4335;48.860;9.198;2022-11-15T06:41:24;8.60;;;5.00;;
8594;SDS011;4335;48.860;9.198;2022-11-15T06:43:50;6.50;;;4.93;;
8594;SDS011;4335;48.860;9.198;2022-11-15T06:46:17;6.60;;;5.33;;
8594;SDS011;4335;48.860;9.198;2022-11-15T06:48:47;8.17;;;4.90;;
8594;SDS011;4335;48.860;9.198;2022-11-15T06:51:16;9.17;;;5.50;;
8594;SDS011;4335;48.860;9.198;2022-11-15T06:53:42;7.67;;;5.30;;
8594;SDS011;4335;48.860;9.198;2022-11-15T06:56:09;8.77;;;4.97;;
8594;SDS011;4335;48.860;9.198;2022-11-15T06:58:39;8.23;;;5.20;;
8594;SDS011;4335;48.860;9.198;2022-11-15T07:01:06;7.67;;;5.27;;
8594;SDS011;4335;48.860;9.198;2022-11-15T07:03:38;7.63;;;5.17;;
8594;SDS011;4335;48.860;9.198;2022-11-15T07:06:10;6.83;;;5.00;;
8594;SDS011;4335;48.860;9.198;2022-11-15T07:08:37;8.10;;;5.50;;
8594;SDS011;4335;48.860;9.198;2022-11-15T07:11:05;10.30;;;5.50;;
8594;SDS011;4335;48.860;9.198;2022-11-15T07:13:33;8.23;;;5.57;;
8594;SDS011;4335;48.860;9.198;2022-11-15T07:16:01;10.03;;;4.77;;
8594;SDS011;4335;48.860;9.198;2022-11-15T07:18:28;11.90;;;5.43;;
8594;SDS011;4335;48.860;9.198;2022-11-15T07:20:55;4.67;;;4.17;;
8594;SDS011;4335;48.860;9.198;2022-11-15T07:23:29;5.77;;;4.57;;
8594;SDS011;4335;48.860;9.198;2022-11-15T07:25:58;9.57;;;4.87;;
8594;SDS011;4335;48.860;9.198;2022-11-15T07:28:25;6.23;;;4.67;;
8594;SDS011;4335;48.860;9.198;2022-11-15T07:30:52;6.77;;;4.90;;
8594;SDS011;4335;48.860;9.198;2022-11-15T07:33:19;7.80;;;5.00;;
8594;SDS011;4335;48.860;9.198;2022-11-15T07:35:46;5.70;;;5.10;;
8594;SDS011;4335;48.860;9.198;2022-11-15T07:38:14;7.90;;;5.10;;
8594;SDS011;4335;48.860;9.198;2022-11-15T07:40:42;6.87;;;4.10;;
8594;SDS011;4335;48.860;9.198;2022-11-15T07:43:14;7.93;;;4.90;;
8594;SDS011;4335;48.860;9.198;2022-11-15T07:45:41;8.00;;;4.90;;
8594;SDS011;4335;48.860;9.198;2022-11-15T07:48:12;9.93;;;5.83;;
8594;SDS011;4335;48.860;9.198;2022-11-15T07:50:40;8.17;;;5.13;;
8594;SDS011;4335;48.860;9.198;2022-11-15T07:53:13;8.90;;;5.70;;
8594;SDS011;4335;48.860;9.198;2022-11-15T07:55:44;6.70;;;5.10;;
8594;SDS011;4335;48.860;9.198;2022-11-15T07:58:11;10.57;;;7.77;;
8594;SDS011;4335;48.860;9.198;2022-11-15T08:00:39;9.83;;;7.63;;
8594;SDS011;4335;48.860;9.198;2022-11-15T08:03:07;7.50;;;5.47;;
8594;SDS011;4335;48.860;9.198;2022-11-15T08:05:35;9.13;;;5.33;;
8594;SDS011;4335;48.860;9.198;2022-11-15T08:08:04;14.20;;;6.70;;
8594;SDS011;4335;48.860;9.198;2022-11-15T08:10:32;11.27;;;5.63;;
8594;SDS011;4335;48.860;9.198;2022-11-15T08:13:00;8.67;;;5.83;;
8594;SDS011;4335;48.860;9.198;2022-11-15T08:15:32;8.07;;;4.97;;
8594;SDS011;4335;48.860;9.198;2022-11-15T08:18:00;9.40;;;5.37;;
8594;SDS011;4335;48.860;9.198;2022-11-15T08:20:29;15.37;;;8.70;;
8594;SDS011;4335;48.860;9.198;2022-11-15T08:22:56;12.90;;;7.83;;
8594;SDS011;4335;48.860;9.198;2022-11-15T08:25:24;8.33;;;6.40;;
8594;SDS011;4335;48.860;9.198;2022-11-15T08:27:52;9.13;;;6.43;;
8594;SDS011;4335;48.860;9.198;2022-11-15T08:30:19;9.73;;;5.87;;
8594;SDS011;4335;48.860;9.198;2022-11-15T08:32:46;7.63;;;5.03;;
8594;SDS011;4335;48.860;9.198;2022-11-15T08:35:19;8.40;;;5.40;;
8594;SDS011;4335;48.860;9.198;2022-11-15T08:37:49;6.67;;;4.60;;
8594;SDS011;4335;48.860;9.198;2022-11-15T08:40:26;9.63;;;6.53;;
8594;SDS011;4335;48.860;9.198;2022-11-15T08:42:52;8.83;;;6.33;;
8594;SDS011;4335;48.860;9.198;2022-11-15T08:45:23;5.87;;;4.70;;
8594;SDS011;4335;48.860;9.198;2022-11-15T08:47:49;7.73;;;4.93;;
8594;SDS011;4335;48.860;9.198;2022-11-15T08:50:16;5.17;;;4.30;;
8594;SDS011;4335;48.860;9.198;2022-11-15T08:52:43;6.13;;;4.57;;
8594;SDS011;4335;48.860;9.198;2022-11-15T08:55:12;13.63;;;5.63;;
8594;SDS011;4335;48.860;9.198;2022-11-15T08:57:39;5.70;;;4.37;;
8594;SDS011;4335;48.860;9.198;2022-11-15T09:00:06;6.43;;;5.17;;
8594;SDS011;4335;48.860;9.198;2022-11-15T09:02:34;6.47;;;4.37;;
8594;SDS011;4335;48.860;9.198;2022-11-15T09:05:03;5.27;;;4.50;;
8594;SDS011;4335;48.860;9.198;2022-11-15T09:07:30;7.47;;;5.27;;
8594;SDS011;4335;48.860;9.198;2022-11-15T09:09:57;7.50;;;5.00;;
8594;SDS011;4335;48.860;9.198;2022-11-15T09:12:29;6.03;;;4.57;;
8594;SDS011;4335;48.860;9.198;2022-11-15T09:14:56;5.47;;;4.43;;
8594;SDS011;4335;48.860;9.198;2022-11-15T09:17:32;5.93;;;3.97;;
8594;SDS011;4335;48.860;9.198;2022-11-15T09:20:00;7.90;;;5.13;;
8594;SDS011;4335;48.860;9.198;2022-11-15T09:22:31;9.17;;;5.27;;
8594;SDS011;4335;48.860;9.198;2022-11-15T09:24:57;8.20;;;4.63;;
8594;SDS011;4335;48.860;9.198;2022-11-15T09:27:27;6.20;;;3.87;;
8594;SDS011;4335;48.860;9.198;2022-11-15T09:29:57;6.10;;;4.00;;
8594;SDS011;4335;48.860;9.198;2022-11-15T09:32:27;6.73;;;4.40;;
8594;SDS011;4335;48.860;9.198;2022-11-15T09:34:55;4.43;;;4.03;;
8594;SDS011;4335;48.860;9.198;2022-11-15T09:37:28;8.03;;;4.93;;
8594;SDS011;4335;48.860;9.198;2022-11-15T09:39:57;5.87;;;4.23;;
8594;SDS011;4335;48.860;9.198;2022-11-15T09:42:42;5.97;;;4.43;;
8594;SDS011;4335;48.860;9.198;2022-11-15T09:45:28;4.50;;;3.70;;
8594;SDS011;4335;48.860;9.198;2022-11-15T09:48:06;5.23;;;3.63;;
8594;SDS011;4335;48.860;9.198;2022-11-15T09:50:54;12.70;;;4.40;;
8594;SDS011;4335;48.860;9.198;2022-11-15T09:53:31;4.27;;;3.40;;
8594;SDS011;4335;48.860;9.198;2022-11-15T09:56:03;5.37;;;3.60;;
8594;SDS011;4335;48.860;9.198;2022-11-15T09:58:42;5.40;;;3.07;;
8594;SDS011;4335;48.860;9.198;2022-11-15T10:01:17;5.50;;;3.60;;
8594;SDS011;4335;48.860;9.198;2022-11-15T10:03:50;4.33;;;3.07;;
8594;SDS011;4335;48.860;9.198;2022-11-15T10:06:18;6.07;;;3.00;;
8594;SDS011;4335;48.860;9.198;2022-11-15T10:08:54;4.53;;;3.00;;
8594;SDS011;4335;48.860;9.198;2022-11-15T10:11:25;3.47;;;2.90;;
8594;SDS011;4335;48.860;9.198;2022-11-15T10:13:54;5.43;;;3.20;;
8594;SDS011;4335;48.860;9.198;2022-11-15T10:19:23;5.10;;;3.30;;
8594;SDS011;4335;48.860;9.198;2022-11-15T10:22:04;3.97;;;3.07;;
8594;SDS011;4335;48.860;9.198;2022-11-15T10:24:50;5.33;;;3.33;;
8594;SDS011;4335;48.860;9.198;2022-11-15T10:27:35;4.93;;;3.33;;
8594;SDS011;4335;48.860;9.198;2022-11-15T10:30:02;6.17;;;3.87;;
8594;SDS011;4335;48.860;9.198;2022-11-15T10:32:36;6.10;;;3.57;;
8594;SDS011;4335;48.860;9.198;2022-11-15T10:35:15;4.30;;;3.40;;
8594;SDS011;4335;48.860;9.198;2022-11-15T10:37:45;5.70;;;4.03;;
8594;SDS011;4335;48.860;9.198;2022-11-15T10:40:16;6.23;;;3.57;;
8594;SDS011;4335;48.860;9.198;2022-11-15T10:42:45;5.17;;;3.77;;
8594;SDS011;4335;48.860;9.198;2022-11-15T10:45:26;4.57;;;3.50;;
8594;SDS011;4335;48.860;9.198;2022-11-15T10:48:02;6.77;;;3.90;;
8594;SDS011;4335;48.860;9.198;2022-11-15T10:50:52;6.00;;;3.50;;
8594;SDS011;4335;48.860;9.198;2022-11-15T10:53:24;7.93;;;3.70;;
8594;SDS011;4335;48.860;9.198;2022-11-15T10:55:57;5.80;;;3.30;;
8594;SDS011;4335;48.860;9.198;2022-11-15T10:58:34;5.50;;;3.23;;
8594;SDS011;4335;48.860;9.198;2022-11-15T11:01:13;5.77;;;3.63;;
8594;SDS011;4335;48.860;9.198;2022-11-15T11:03:42;4.03;;;3.07;;
8594;SDS011;4335;48.860;9.198;2022-11-15T11:06:11;5.10;;;3.33;;
8594;SDS011;4335;48.860;9.198;2022-11-15T11:08:39;4.67;;;3.50;;
8594;SDS011;4335;48.860;9.198;2022-11-15T11:11:07;6.93;;;3.53;;
8594;SDS011;4335;48.860;9.198;2022-11-15T11:13:34;24.77;;;4.60;;
8594;SDS011;4335;48.860;9.198;2022-11-15T11:19:18;5.80;;;3.73;;
8594;SDS011;4335;48.860;9.198;2022-11-15T11:22:06;5.10;;;3.73;;
8594;SDS011;4335;48.860;9.198;2022-11-15T11:24:44;7.30;;;4.60;;
8594;SDS011;4335;48.860;9.198;2022-11-15T11:27:24;6.70;;;3.90;;
8594;SDS011;4335;48.860;9.198;2022-11-15T11:30:02;5.10;;;3.80;;
8594;SDS011;4335;48.860;9.198;2022-11-15T11:32:44;8.10;;;4.00;;
8594;SDS011;4335;48.860;9.198;2022-11-15T11:35:40;5.83;;;3.77;;
8594;SDS011;4335;48.860;9.198;2022-11-15T11:41:20;5.47;;;3.80;;
8594;SDS011;4335;48.860;9.198;2022-11-15T11:44:10;10.50;;;6.93;;
8594;SDS011;4335;48.860;9.198;2022-11-15T11:46:47;6.67;;;5.13;;
8594;SDS011;4335;48.860;9.198;2022-11-15T11:49:21;7.47;;;3.73;;
8594;SDS011;4335;48.860;9.198;2022-11-15T11:51:54;6.20;;;4.10;;
8594;SDS011;4335;48.860;9.198;2022-11-15T11:54:31;7.33;;;3.73;;
8594;SDS011;4335;48.860;9.198;2022-11-15T11:57:07;4.00;;;3.20;;
8594;SDS011;4335;48.860;9.198;2022-11-15T11:59:42;7.23;;;3.67;;
8594;SDS011;4335;48.860;9.198;2022-11-15T12:02:21;4.20;;;3.43;;
8594;SDS011;4335;48.860;9.198;2022-11-15T12:05:09;5.17;;;3.50;;
8594;SDS011;4335;48.860;9.198;2022-11-15T12:07:39;6.60;;;3.13;;
8594;SDS011;4335;48.860;9.198;2022-11-15T12:10:15;6.77;;;3.17;;
8594;SDS011;4335;48.860;9.198;2022-11-15T12:12:50;4.83;;;3.00;;
8594;SDS011;4335;48.860;9.198;2022-11-15T12:15:25;6.30;;;3.03;;
8594;SDS011;4335;48.860;9.198;2022-11-15T12:17:55;3.90;;;2.97;;
8594;SDS011;4335;48.860;9.198;2022-11-15T12:20:27;2.90;;;2.60;;
8594;SDS011;4335;48.860;9.198;2022-11-15T12:22:59;4.13;;;3.00;;
8594;SDS011;4335;48.860;9.198;2022-11-15T12:25:31;3.80;;;2.73;;
8594;SDS011;4335;48.860;9.198;2022-11-15T12:28:07;6.60;;;3.33;;
8594;SDS011;4335;48.860;9.198;2022-11-15T12:30:43;6.33;;;4.20;;
8594;SDS011;4335;48.860;9.198;2022-11-15T12:33:31;6.60;;;3.23;;
8594;SDS011;4335;48.860;9.198;2022-11-15T12:36:02;5.93;;;2.97;;
8594;SDS011;4335;48.860;9.198;2022-11-15T12:41:34;4.60;;;3.20;;
8594;SDS011;4335;48.860;9.198;2022-11-15T12:44:02;3.67;;;3.00;;
8594;SDS011;4335;48.860;9.198;2022-11-15T12:49:45;6.23;;;3.17;;
8594;SDS011;4335;48.860;9.198;2022-11-15T12:52:12;4.80;;;2.83;;
8594;SDS011;4335;48.860;9.198;2022-11-15T12:54:56;6.93;;;3.17;;
8594;SDS011;4335;48.860;9.198;2022-11-15T12:57:47;4.47;;;2.50;;
8594;SDS011;4335;48.860;9.198;2022-11-15T13:03:16;4.20;;;3.23;;
8594;SDS011;4335;48.860;9.198;2022-11-15T13:09:02;4.33;;;2.93;;
8594;SDS011;4335;48.860;9.198;2022-11-15T13:11:45;4.07;;;2.70;;
8594;SDS011;4335;48.860;9.198;2022-11-15T13:14:39;5.20;;;2.97;;
8594;SDS011;4335;48.860;9.198;2022-11-15T13:17:22;3.73;;;2.90;;
8594;SDS011;4335;48.860;9.198;2022-11-15T13:19:57;4.23;;;3.23;;
8594;SDS011;4335;48.860;9.198;2022-11-15T13:22:46;7.77;;;3.37;;
8594;SDS011;4335;48.860;9.198;2022-11-15T13:25:18;3.87;;;3.40;;
8594;SDS011;4335;48.860;9.198;2022-11-15T13:27:53;4.20;;;2.80;;
8594;SDS011;4335;48.860;9.198;2022-11-15T13:30:23;5.43;;;2.80;;
8594;SDS011;4335;48.860;9.198;2022-11-15T13:32:51;4.13;;;2.90;;
8594;SDS011;4335;48.860;9.198;2022-11-15T13:35:20;6.37;;;3.20;;
8594;SDS011;4335;48.860;9.198;2022-11-15T13:37:49;6.37;;;3.07;;
8594;SDS011;4335;48.860;9.198;2022-11-15T13:40:20;5.00;;;3.10;;
8594;SDS011;4335;48.860;9.198;2022-11-15T13:43:15;5.70;;;2.73;;
8594;SDS011;4335;48.860;9.198;2022-11-15T13:46:07;5.83;;;2.70;;
8594;SDS011;4335;48.860;9.198;2022-11-15T13:48:37;4.17;;;3.03;;
8594;SDS011;4335;48.860;9.198;2022-11-15T13:51:06;5.63;;;2.80;;
8594;SDS011;4335;48.860;9.198;2022-11-15T13:53:39;7.97;;;4.40;;
8594;SDS011;4335;48.860;9.198;2022-11-15T13:56:11;7.03;;;3.20;;
8594;SDS011;4335;48.860;9.198;2022-11-15T13:58:38;4.73;;;3.20;;
8594;SDS011;4335;48.860;9.198;2022-11-15T14:01:13;5.90;;;2.87;;
8594;SDS011;4335;48.860;9.198;2022-11-15T14:03:48;5.33;;;3.23;;
8594;SDS011;4335;48.860;9.198;2022-11-15T14:06:18;6.80;;;3.10;;
8594;SDS011;4335;48.860;9.198;2022-11-15T14:09:14;3.83;;;2.50;;
8594;SDS011;4335;48.860;9.198;2022-11-15T14:12:01;6.27;;;3.07;;
8594;SDS011;4335;48.860;9.198;2022-11-15T14:14:49;4.80;;;3.60;;
8594;SDS011;4335;48.860;9.198;2022-11-15T14:17:19;4.03;;;2.97;;
8594;SDS011;4335;48.860;9.198;2022-11-15T14:19:49;3.53;;;2.90;;
8594;SDS011;4335;48.860;9.198;2022-11-15T14:22:18;4.87;;;3.43;;
8594;SDS011;4335;48.860;9.198;2022-11-15T14:27:39;6.73;;;3.83;;
8594;SDS011;4335;48.860;9.198;2022-11-15T14:30:12;5.37;;;3.40;;
8594;SDS011;4335;48.860;9.198;2022-11-15T14:32:41;4.30;;;3.70;;
8594;SDS011;4335;48.860;9.198;2022-11-15T14:35:12;4.70;;;3.43;;
8594;SDS011;4335;48.860;9.198;2022-11-15T14:37:41;4.13;;;3.10;;
8594;SDS011;4335;48.860;9.198;2022-11-15T14:40:08;5.77;;;3.40;;
8594;SDS011;4335;48.860;9.198;2022-11-15T14:42:39;6.73;;;4.20;;
8594;SDS011;4335;48.860;9.198;2022-11-15T14:45:09;6.07;;;3.83;;
8594;SDS011;4335;48.860;9.198;2022-11-15T14:47:42;7.27;;;4.33;;
8594;SDS011;4335;48.860;9.198;2022-11-15T14:50:12;6.20;;;4.43;;
8594;SDS011;4335;48.860;9.198;2022-11-15T14:52:39;6.80;;;4.23;;
8594;SDS011;4335;48.860;9.198;2022-11-15T14:55:15;5.23;;;4.70;;
8594;SDS011;4335;48.860;9.198;2022-11-15T14:57:44;7.43;;;4.77;;
8594;SDS011;4335;48.860;9.198;2022-11-15T15:00:12;4.90;;;4.20;;
8594;SDS011;4335;48.860;9.198;2022-11-15T15:02:40;6.73;;;4.63;;
8594;SDS011;4335;48.860;9.198;2022-11-15T15:05:17;5.20;;;4.70;;
8594;SDS011;4335;48.860;9.198;2022-11-15T15:07:49;6.73;;;4.20;;
8594;SDS011;4335;48.860;9.198;2022-11-15T15:10:18;6.30;;;4.30;;
8594;SDS011;4335;48.860;9.198;2022-11-15T15:12:45;5.80;;;4.40;;
8594;SDS011;4335;48.860;9.198;2022-11-15T15:15:12;6.27;;;4.23;;
8594;SDS011;4335;48.860;9.198;2022-11-15T15:17:40;9.67;;;4.93;;
8594;SDS011;4335;48.860;9.198;2022-11-15T15:20:07;6.23;;;3.80;;
8594;SDS011;4335;48.860;9.198;2022-11-15T15:22:35;8.50;;;6.33;;
8594;SDS011;4335;48.860;9.198;2022-11-15T15:25:02;8.43;;;4.90;;
8594;SDS011;4335;48.860;9.198;2022-11-15T15:27:36;8.80;;;5.13;;
8594;SDS011;4335;48.860;9.198;2022-11-15T15:30:03;7.17;;;4.97;;
8594;SDS011;4335;48.860;9.198;2022-11-15T15:32:31;8.63;;;4.87;;
8594;SDS011;4335;48.860;9.198;2022-11-15T15:35:01;9.43;;;5.47;;
8594;SDS011;4335;48.860;9.198;2022-11-15T15:37:27;8.67;;;5.33;;
8594;SDS011;4335;48.860;9.198;2022-11-15T15:39:58;11.37;;;5.27;;
8594;SDS011;4335;48.860;9.198;2022-11-15T15:42:28;7.13;;;5.27;;
8594;SDS011;4335;48.860;9.198;2022-11-15T15:44:55;8.40;;;5.83;;
8594;SDS011;4335;48.860;9.198;2022-11-15T15:47:22;10.00;;;6.50;;
8594;SDS011;4335;48.860;9.198;2022-11-15T15:49:50;7.63;;;5.73;;
8594;SDS011;4335;48.860;9.198;2022-11-15T15:52:17;8.23;;;6.03;;
8594;SDS011;4335;48.860;9.198;2022-11-15T15:54:44;9.87;;;6.33;;
8594;SDS011;4335;48.860;9.198;2022-11-15T15:57:12;8.93;;;5.93;;
8594;SDS011;4335;48.860;9.198;2022-11-15T15:59:40;12.43;;;5.80;;
8594;SDS011;4335;48.860;9.198;2022-11-15T16:02:08;10.87;;;5.93;;
8594;SDS011;4335;48.860;9.198;2022-11-15T16:04:37;9.37;;;7.00;;
8594;SDS011;4335;48.860;9.198;2022-11-15T16:07:04;10.37;;;8.17;;
8594;SDS011;4335;48.860;9.198;2022-11-15T16:09:30;11.90;;;8.80;;
8594;SDS011;4335;48.860;9.198;2022-11-15T16:12:21;13.80;;;8.80;;